Airfield :
LOGIN :

Register | Disclaimer

   EN    FR    IT 

 










Legend :    VFR   Marginal VFR   IFR   Intensive IFR   Very Intensive IFR
Visi :
Ceiling :
>= 8 km
>= 3000ft
5 to 8 km
1000 to 3000 ft
1500m to 5 km
500 to 1000 ft
800 to 1500m
200 to 500 ft
< 800m
< 200 ft
Symbols :   Thunderstorms  Fog  Heavy snow  Heavy precipitations  Wind > 20 kt
SIGMETs :     Misc.  Thunderstorms  Icing  Turbulence  Mountain Waves  Volcanic Ashes







- Airport Elevation : 126 ft
- IATA code : TIA


LATI - Rinas Mother Teresa Arpt - Tirana

CURRENT METAR :
  • 190450Z 18003KT 5000 BR NSC 00/M00 Q1023 TEMPO 1500 BCFG

EXPIRED METARs :
  • 190420Z 16003KT 4000 BR NSC 01/00 Q1023 TEMPO 1500 BCFG
  • 190320Z 17004KT 3000 BR NSC 01/00 Q1023 TEMPO 1500 BCFG
  • 190250Z 18004KT 2500 BR NSC 01/01 Q1023 TEMPO 1500 BCFG
  • 190220Z 15004KT 5000 BR NSC 01/01 Q1023 TEMPO 1500 BCFG

TAF TAF LATI
Valid from the 19 at 00:00 until the 20 at 00:00 UTC


182300Z 1900/1924 VRB04KT 5000 BR NSC TX16/1912Z TN01/1904Z
PROB40
TEMPO 1901/1906 1500 BCFG
BECMG 1907/1909 CAVOK
TEMPO 1910/1917 34008KT
No reported NOTAMs for that airfield.



MET'MAP, your aeronautical weather chart ! - Copyright ORBIFLY December 2007 - Disclaimer

ORBIFLY MET'MAP TEAM :

Programming & Development : Alexandra Zaïnal
Concept & Development : Baudouin d'Aumeries
Co-Development & Prog : Marc-Olivier Méhu
Technical & hardware support : Manuel Goepfert

Contact : metmap@orbifly.com




SOURCES & CREDITS :

   NOAA